createdAt,value
2022-12-08T00:02:10.760Z,6.20
2022-12-08T00:04:59.905Z,7.50
2022-12-08T00:07:46.756Z,6.30
2022-12-08T00:10:47.404Z,6.80
2022-12-08T00:13:03.846Z,5.40
2022-12-08T00:15:32.014Z,5.20
2022-12-08T00:18:00.274Z,3.60
2022-12-08T00:20:28.774Z,6.20
2022-12-08T00:22:56.992Z,10.10
2022-12-08T00:25:25.277Z,8.80
2022-12-08T00:27:53.473Z,9.20
2022-12-08T00:30:21.873Z,9.30
2022-12-08T00:32:50.257Z,9.40
2022-12-08T00:35:18.492Z,8.40
2022-12-08T00:37:47.323Z,7.00
2022-12-08T00:40:15.765Z,7.30
2022-12-08T00:42:44.049Z,7.20
2022-12-08T00:45:12.471Z,8.00
2022-12-08T00:47:40.742Z,4.70
2022-12-08T00:50:09.882Z,5.90
2022-12-08T00:52:38.137Z,6.60
2022-12-08T00:55:06.553Z,4.30
2022-12-08T00:57:34.849Z,4.40
2022-12-08T01:00:04.618Z,3.60
2022-12-08T01:02:34.514Z,4.60
2022-12-08T01:05:02.923Z,4.30
2022-12-08T01:07:31.073Z,5.40
2022-12-08T01:09:59.668Z,4.10
2022-12-08T01:12:30.491Z,5.10
2022-12-08T01:15:02.227Z,3.10
2022-12-08T01:17:30.986Z,2.90
2022-12-08T01:19:59.900Z,5.80
2022-12-08T01:22:28.213Z,3.20
2022-12-08T01:24:56.635Z,3.30
2022-12-08T01:27:24.807Z,3.90
2022-12-08T01:29:53.055Z,3.40
2022-12-08T01:32:21.255Z,3.60
2022-12-08T01:34:49.583Z,4.20
2022-12-08T01:37:17.864Z,2.70
2022-12-08T01:39:46.447Z,4.80
2022-12-08T01:42:25.626Z,2.90
2022-12-08T01:45:00.871Z,4.60
2022-12-08T01:47:42.902Z,4.30
2022-12-08T01:50:15.598Z,4.00
2022-12-08T01:52:52.901Z,4.60
2022-12-08T01:55:26.343Z,4.20
2022-12-08T01:57:59.933Z,3.10
2022-12-08T02:00:28.390Z,4.90
2022-12-08T02:03:06.905Z,4.60
2022-12-08T02:05:39.230Z,6.00
2022-12-08T02:08:11.477Z,4.80
2022-12-08T02:10:42.933Z,4.60
2022-12-08T02:13:16.906Z,4.10
2022-12-08T02:16:03.459Z,4.00
2022-12-08T02:18:34.731Z,3.80
2022-12-08T02:21:26.391Z,4.20
2022-12-08T02:23:54.646Z,3.60
2022-12-08T02:26:55.634Z,3.20
2022-12-08T02:29:45.306Z,3.40
2022-12-08T02:32:25.843Z,3.80
2022-12-08T02:35:08.317Z,3.50
2022-12-08T02:37:48.561Z,4.60
2022-12-08T02:40:21.067Z,3.90
2022-12-08T02:42:58.862Z,5.70
2022-12-08T02:45:26.958Z,4.20
2022-12-08T02:47:55.451Z,3.70
2022-12-08T02:50:23.832Z,3.60
2022-12-08T02:52:52.051Z,5.10
2022-12-08T02:55:39.803Z,3.90
2022-12-08T02:58:18.268Z,4.10
2022-12-08T03:00:52.682Z,3.00
2022-12-08T03:03:53.173Z,5.10
2022-12-08T03:06:43.295Z,3.20
2022-12-08T03:09:22.764Z,5.70
2022-12-08T03:11:59.219Z,4.20
2022-12-08T03:14:29.720Z,4.40
2022-12-08T03:16:59.957Z,3.20
2022-12-08T03:19:34.582Z,3.70
2022-12-08T03:22:05.198Z,4.10
2022-12-08T03:24:40.892Z,4.50
2022-12-08T03:27:19.258Z,3.80
2022-12-08T03:29:49.538Z,5.30
2022-12-08T03:32:29.471Z,5.80
2022-12-08T03:35:01.338Z,4.50
2022-12-08T03:37:30.063Z,4.40
2022-12-08T03:39:58.403Z,4.20
2022-12-08T03:42:26.724Z,5.70
2022-12-08T03:44:55.073Z,3.50
2022-12-08T03:47:23.181Z,6.60
2022-12-08T03:49:51.612Z,10.80
2022-12-08T03:52:19.728Z,12.30
2022-12-08T03:54:48.208Z,11.90
2022-12-08T03:57:16.540Z,13.20
2022-12-08T03:59:44.823Z,12.80
2022-12-08T04:02:13.108Z,9.10
2022-12-08T04:04:41.572Z,12.10
2022-12-08T04:07:09.844Z,9.10
2022-12-08T04:09:39.151Z,12.20
2022-12-08T04:12:08.541Z,11.20
2022-12-08T04:14:36.939Z,12.30
2022-12-08T04:17:05.083Z,9.60
2022-12-08T04:19:33.460Z,15.40
2022-12-08T04:22:01.645Z,10.00
2022-12-08T04:24:29.852Z,11.80
2022-12-08T04:26:58.084Z,18.60
2022-12-08T04:29:26.381Z,14.80
2022-12-08T04:31:54.591Z,15.70
2022-12-08T04:34:23.415Z,11.20
2022-12-08T04:36:51.653Z,12.80
2022-12-08T04:39:20.132Z,13.90
2022-12-08T04:41:48.380Z,9.90
2022-12-08T04:44:17.012Z,10.40
2022-12-08T04:46:45.267Z,11.90
2022-12-08T04:49:13.738Z,9.60
2022-12-08T04:51:41.938Z,7.40
2022-12-08T04:54:10.082Z,6.40
2022-12-08T04:56:38.267Z,8.30
2022-12-08T04:59:06.710Z,7.70
2022-12-08T05:01:35.036Z,7.90
2022-12-08T05:04:03.448Z,7.00
2022-12-08T05:06:31.587Z,10.70
2022-12-08T05:08:59.846Z,10.70
2022-12-08T05:11:28.038Z,10.70
2022-12-08T05:13:56.361Z,8.10
2022-12-08T05:16:24.607Z,9.20
2022-12-08T05:18:53.053Z,8.40
2022-12-08T05:21:23.389Z,11.50
2022-12-08T05:23:51.662Z,11.20
2022-12-08T05:26:19.775Z,12.90
2022-12-08T05:28:48.140Z,14.00
2022-12-08T05:31:17.455Z,11.10
2022-12-08T05:33:46.533Z,8.80
2022-12-08T05:36:16.016Z,8.60
2022-12-08T05:38:46.418Z,7.10
2022-12-08T05:41:18.605Z,8.50
2022-12-08T05:43:47.676Z,10.00
2022-12-08T05:46:16.972Z,9.90
2022-12-08T05:48:45.624Z,9.90
2022-12-08T05:51:24.610Z,8.50
2022-12-08T05:53:53.891Z,10.70
2022-12-08T05:56:22.718Z,8.50
2022-12-08T05:58:51.295Z,11.40
2022-12-08T06:01:22.454Z,10.70
2022-12-08T06:03:52.039Z,10.80
2022-12-08T06:06:20.765Z,15.70
2022-12-08T06:08:49.576Z,8.70
2022-12-08T06:11:24.037Z,10.40
2022-12-08T06:13:52.768Z,13.20
2022-12-08T06:16:20.983Z,9.50
2022-12-08T06:18:49.651Z,7.10
2022-12-08T06:21:18.141Z,8.00
2022-12-08T06:23:51.388Z,6.70
2022-12-08T06:26:20.005Z,8.40
2022-12-08T06:28:49.568Z,10.10
2022-12-08T06:31:23.675Z,8.30
2022-12-08T06:33:53.463Z,10.50
2022-12-08T06:36:24.626Z,11.20
2022-12-08T06:38:53.094Z,11.80
2022-12-08T06:41:21.954Z,12.20
2022-12-08T06:43:50.357Z,10.70
2022-12-08T06:46:19.926Z,10.80
2022-12-08T06:48:50.603Z,10.60
2022-12-08T06:51:22.873Z,9.70
2022-12-08T06:53:51.322Z,17.40
2022-12-08T06:56:22.493Z,16.40
2022-12-08T06:58:53.005Z,13.00
2022-12-08T07:01:22.003Z,14.20
2022-12-08T07:03:50.523Z,12.90
2022-12-08T07:06:22.584Z,13.60
2022-12-08T07:08:51.683Z,13.90
2022-12-08T07:11:22.197Z,18.10
2022-12-08T07:13:51.182Z,14.80
2022-12-08T07:16:20.261Z,17.20
2022-12-08T07:18:48.729Z,17.40
2022-12-08T07:21:17.932Z,13.10
2022-12-08T07:23:50.171Z,12.00
2022-12-08T07:26:22.768Z,11.70
2022-12-08T07:28:51.052Z,12.30
2022-12-08T07:31:22.173Z,11.10
2022-12-08T07:33:52.073Z,16.90
2022-12-08T07:36:21.372Z,11.90
2022-12-08T07:38:53.267Z,15.40
2022-12-08T07:41:26.071Z,17.40
2022-12-08T07:43:55.888Z,15.20
2022-12-08T07:46:25.973Z,15.10
2022-12-08T07:48:55.481Z,11.80
2022-12-08T07:51:25.150Z,12.40
2022-12-08T07:53:55.148Z,9.30
2022-12-08T07:56:24.000Z,10.20
2022-12-08T07:58:52.404Z,13.00
2022-12-08T08:01:29.571Z,13.50
2022-12-08T08:04:02.009Z,18.30
2022-12-08T08:06:35.206Z,13.20
2022-12-08T08:09:04.112Z,13.10
2022-12-08T08:11:32.441Z,14.90
2022-12-08T08:14:00.930Z,16.00
2022-12-08T08:16:33.474Z,13.70
2022-12-08T08:19:04.801Z,10.90
2022-12-08T08:21:48.413Z,12.70
2022-12-08T08:26:46.077Z,11.70
2022-12-08T08:29:14.188Z,11.80
2022-12-08T08:31:42.836Z,9.20
2022-12-08T08:34:11.286Z,6.90
2022-12-08T08:36:40.420Z,8.40
2022-12-08T08:39:09.370Z,8.90
2022-12-08T08:41:37.784Z,9.60
2022-12-08T08:44:06.203Z,12.50
2022-12-08T08:46:34.512Z,12.10
2022-12-08T08:49:03.075Z,10.10
2022-12-08T08:51:31.612Z,11.90
2022-12-08T08:53:59.877Z,10.00
2022-12-08T08:56:28.083Z,11.20
2022-12-08T08:58:56.371Z,8.60
2022-12-08T09:01:27.555Z,10.00
2022-12-08T09:03:56.525Z,10.60
2022-12-08T09:06:25.022Z,11.50
2022-12-08T09:08:53.288Z,11.20
2022-12-08T09:11:23.609Z,9.40
2022-12-08T09:13:53.807Z,7.00
2022-12-08T09:16:23.149Z,9.00
2022-12-08T09:18:52.058Z,8.20
2022-12-08T09:21:24.355Z,10.80
2022-12-08T09:23:57.593Z,9.70
2022-12-08T09:26:28.025Z,11.70
2022-12-08T09:28:57.192Z,12.70
2022-12-08T09:31:25.790Z,9.30
2022-12-08T09:33:54.095Z,13.40
2022-12-08T09:36:22.371Z,12.20
2022-12-08T09:38:51.816Z,14.20
2022-12-08T09:41:36.548Z,12.40
2022-12-08T09:44:07.274Z,11.00
2022-12-08T09:46:37.857Z,13.30
2022-12-08T09:49:14.368Z,11.70
2022-12-08T09:51:45.114Z,11.20
2022-12-08T09:54:21.214Z,14.10
2022-12-08T09:56:55.290Z,17.40
2022-12-08T09:59:26.206Z,21.20
2022-12-08T10:01:55.456Z,11.50
2022-12-08T10:04:23.968Z,24.20
2022-12-08T10:07:30.948Z,21.40
2022-12-08T10:10:21.186Z,15.60
2022-12-08T10:13:05.830Z,22.40
2022-12-08T10:15:41.963Z,20.40
2022-12-08T10:18:19.570Z,17.10
2022-12-08T10:20:49.893Z,22.20
2022-12-08T10:23:36.666Z,25.40
2022-12-08T10:26:08.233Z,20.20
2022-12-08T10:28:41.402Z,26.20
2022-12-08T10:31:18.143Z,23.00
2022-12-08T10:33:48.302Z,20.50
2022-12-08T10:36:16.979Z,15.50
2022-12-08T10:38:45.202Z,16.60
2022-12-08T10:41:18.291Z,14.50
2022-12-08T10:43:49.853Z,19.10
2022-12-08T10:46:25.985Z,23.40
2022-12-08T10:48:57.174Z,18.40
2022-12-08T10:51:30.129Z,17.40
2022-12-08T10:53:59.451Z,22.60
2022-12-08T10:56:30.950Z,18.90
2022-12-08T10:59:18.553Z,18.20
2022-12-08T11:01:49.954Z,13.40
2022-12-08T11:04:29.975Z,18.90
2022-12-08T11:06:58.311Z,18.50
2022-12-08T11:09:37.765Z,16.50
2022-12-08T11:12:16.736Z,21.90
2022-12-08T11:14:44.975Z,20.70
2022-12-08T11:17:23.204Z,16.60
2022-12-08T11:20:00.638Z,17.70
2022-12-08T11:22:44.031Z,14.60
2022-12-08T11:25:19.312Z,15.20
2022-12-08T11:27:53.092Z,14.80
2022-12-08T11:30:32.239Z,11.00
2022-12-08T11:33:06.750Z,12.50
2022-12-08T11:35:38.915Z,10.90
2022-12-08T11:38:21.479Z,14.70
2022-12-08T11:40:55.451Z,16.60
2022-12-08T11:43:35.570Z,14.40
2022-12-08T11:46:20.066Z,14.30
2022-12-08T11:49:07.211Z,18.70
2022-12-08T11:51:45.497Z,15.50
2022-12-08T11:54:25.508Z,13.70
2022-12-08T11:56:57.612Z,14.80
2022-12-08T11:59:47.343Z,14.60
2022-12-08T12:02:20.571Z,14.60
2022-12-08T12:07:32.938Z,11.80
2022-12-08T12:10:10.324Z,12.20
2022-12-08T12:12:56.504Z,15.60
2022-12-08T12:16:10.980Z,14.50
2022-12-08T12:21:09.932Z,12.50
2022-12-08T12:24:18.609Z,12.50
2022-12-08T12:27:13.400Z,13.50
2022-12-08T12:29:56.936Z,13.10
2022-12-08T12:32:27.398Z,10.70
2022-12-08T12:34:59.139Z,11.30
2022-12-08T12:37:40.031Z,13.10
2022-12-08T12:40:34.169Z,11.90
2022-12-08T12:43:02.640Z,13.40
2022-12-08T12:45:34.915Z,13.70
2022-12-08T12:48:02.959Z,16.30
2022-12-08T12:50:34.431Z,14.50
2022-12-08T12:53:25.996Z,19.30
2022-12-08T12:56:03.988Z,15.90
2022-12-08T12:58:32.348Z,16.80
2022-12-08T13:01:12.789Z,16.40
2022-12-08T13:03:47.492Z,17.70
2022-12-08T13:06:23.125Z,18.00
2022-12-08T13:08:54.860Z,14.30
2022-12-08T13:11:24.254Z,15.90
2022-12-08T13:14:04.939Z,15.60
2022-12-08T13:16:39.473Z,14.50
2022-12-08T13:19:15.981Z,16.70
2022-12-08T13:21:44.140Z,18.40
2022-12-08T13:24:21.171Z,20.90
2022-12-08T13:27:09.511Z,25.00
2022-12-08T13:29:40.768Z,19.40
2022-12-08T13:32:09.766Z,21.90
2022-12-08T13:34:45.645Z,26.20
2022-12-08T13:37:20.056Z,22.60
2022-12-08T13:40:10.790Z,28.50
2022-12-08T13:42:51.073Z,25.00
2022-12-08T13:45:59.033Z,24.90
2022-12-08T13:57:36.219Z,24.80
2022-12-08T14:00:08.194Z,26.40
2022-12-08T14:02:48.179Z,24.60
2022-12-08T14:05:26.596Z,29.40
2022-12-08T14:08:03.356Z,31.20
2022-12-08T14:10:32.255Z,34.10
2022-12-08T14:13:12.552Z,32.20
2022-12-08T14:15:41.144Z,30.40
2022-12-08T14:18:30.567Z,29.10
2022-12-08T14:21:28.930Z,28.50
2022-12-08T14:24:03.338Z,28.20
2022-12-08T14:26:36.177Z,30.10
2022-12-08T14:29:08.209Z,30.20
2022-12-08T14:31:36.382Z,32.50
2022-12-08T14:34:04.981Z,29.40
2022-12-08T14:36:33.956Z,23.60
2022-12-08T14:39:02.247Z,28.50
2022-12-08T14:41:33.204Z,29.40
2022-12-08T14:44:02.168Z,27.80
2022-12-08T14:46:30.392Z,28.20
2022-12-08T14:48:59.849Z,28.30
2022-12-08T14:51:32.139Z,28.60
2022-12-08T14:54:08.531Z,33.60
2022-12-08T14:56:46.807Z,30.40
2022-12-08T14:59:17.839Z,28.10
2022-12-08T15:01:47.943Z,26.20
2022-12-08T15:04:22.567Z,25.90
2022-12-08T15:07:05.846Z,27.00
2022-12-08T15:09:43.561Z,25.10
2022-12-08T15:12:14.544Z,28.60
2022-12-08T15:14:54.663Z,30.20
2022-12-08T15:17:51.728Z,34.80
2022-12-08T15:20:33.362Z,34.70
2022-12-08T15:23:04.547Z,37.10
2022-12-08T15:25:32.986Z,42.80
2022-12-08T15:28:03.148Z,39.00
2022-12-08T15:30:31.368Z,38.00
2022-12-08T15:32:59.877Z,37.00
2022-12-08T15:35:28.403Z,38.40
2022-12-08T15:37:56.900Z,42.80
2022-12-08T15:40:27.392Z,40.10
2022-12-08T15:42:55.654Z,32.60
2022-12-08T15:45:30.967Z,39.30
2022-12-08T15:47:59.073Z,35.30
2022-12-08T15:50:27.439Z,34.60
2022-12-08T15:52:55.632Z,37.80
2022-12-08T15:55:24.025Z,37.40
2022-12-08T16:00:58.224Z,49.50
2022-12-08T16:09:33.308Z,42.80
2022-12-08T16:12:20.592Z,45.30
2022-12-08T16:17:37.947Z,45.60
2022-12-08T16:20:15.438Z,48.30
2022-12-08T16:22:56.751Z,46.30
2022-12-08T16:25:52.830Z,45.50
2022-12-08T16:28:52.727Z,46.70
2022-12-08T16:31:15.028Z,44.50
2022-12-08T16:33:45.530Z,45.30
2022-12-08T16:36:13.659Z,42.40
2022-12-08T16:38:41.848Z,45.70
2022-12-08T16:41:36.086Z,41.40
2022-12-08T16:44:06.415Z,45.20
2022-12-08T16:46:36.070Z,53.00
2022-12-08T16:49:04.988Z,46.10
2022-12-08T16:51:33.109Z,54.40
2022-12-08T16:54:01.267Z,49.40
2022-12-08T16:56:33.245Z,50.40
2022-12-08T16:59:02.613Z,51.50
2022-12-08T17:01:30.983Z,47.80
2022-12-08T17:06:47.506Z,53.40
2022-12-08T17:09:15.662Z,55.80
2022-12-08T17:11:44.178Z,56.90
2022-12-08T17:14:13.299Z,56.60
2022-12-08T17:16:42.708Z,73.90
2022-12-08T17:19:13.941Z,78.70
2022-12-08T17:21:43.036Z,73.40
2022-12-08T17:24:12.317Z,71.40
2022-12-08T17:26:41.840Z,70.80
2022-12-08T17:29:09.990Z,57.40
2022-12-08T17:31:38.348Z,53.70
2022-12-08T17:34:11.161Z,56.10
2022-12-08T17:36:39.349Z,54.80
2022-12-08T17:39:12.131Z,54.40
2022-12-08T17:41:44.663Z,49.00
2022-12-08T17:44:17.981Z,48.40
2022-12-08T17:46:52.657Z,45.50
2022-12-08T17:49:36.438Z,43.80
2022-12-08T17:52:08.041Z,44.60
2022-12-08T17:54:36.825Z,46.80
2022-12-08T17:57:05.702Z,46.90
2022-12-08T17:59:34.190Z,50.90
2022-12-08T18:02:02.874Z,47.40
2022-12-08T18:04:31.231Z,51.50
2022-12-08T18:07:01.444Z,48.70
2022-12-08T18:09:31.357Z,42.30
2022-12-08T18:12:00.082Z,44.50
2022-12-08T18:14:28.691Z,48.50
2022-12-08T18:16:56.987Z,52.00
2022-12-08T18:19:26.373Z,52.90
2022-12-08T18:21:55.073Z,54.90
2022-12-08T18:24:23.742Z,43.60
2022-12-08T18:26:52.689Z,48.50
2022-12-08T18:29:22.584Z,51.70
2022-12-08T18:31:51.716Z,48.30
2022-12-08T18:34:20.331Z,45.00
2022-12-08T18:36:49.135Z,45.50
2022-12-08T18:39:24.582Z,48.80
2022-12-08T18:41:53.884Z,48.90
2022-12-08T18:44:22.230Z,52.10
2022-12-08T18:46:51.527Z,45.30
2022-12-08T18:49:20.039Z,52.00
2022-12-08T18:51:48.375Z,46.30
2022-12-08T18:54:16.626Z,45.40
2022-12-08T18:56:45.084Z,50.20
2022-12-08T18:59:14.572Z,55.80
2022-12-08T19:01:43.328Z,57.60
2022-12-08T19:04:27.996Z,59.60
2022-12-08T19:06:57.884Z,60.30
2022-12-08T19:09:27.075Z,59.90
2022-12-08T19:11:56.108Z,58.80
2022-12-08T19:14:28.127Z,52.30
2022-12-08T19:16:57.969Z,60.10
2022-12-08T19:19:27.672Z,59.70
2022-12-08T19:21:56.737Z,59.70
2022-12-08T19:24:25.687Z,67.20
2022-12-08T19:26:54.158Z,55.80
2022-12-08T19:29:22.632Z,58.40
2022-12-08T19:31:51.944Z,59.40
2022-12-08T19:34:23.870Z,59.40
2022-12-08T19:36:52.247Z,60.30
2022-12-08T19:39:41.685Z,53.40
2022-12-08T19:42:36.024Z,53.90
2022-12-08T19:45:16.429Z,55.60
2022-12-08T19:47:45.324Z,49.50
2022-12-08T19:50:34.024Z,53.90
2022-12-08T19:53:21.563Z,44.80
2022-12-08T19:55:51.121Z,49.60
2022-12-08T19:58:22.333Z,45.90
2022-12-08T20:00:50.634Z,49.80
2022-12-08T20:03:20.965Z,49.50
2022-12-08T20:05:59.863Z,54.10
2022-12-08T20:08:29.061Z,51.20
2022-12-08T20:10:59.462Z,54.20
2022-12-08T20:13:44.919Z,54.10
2022-12-08T20:16:15.386Z,54.00
2022-12-08T20:18:44.853Z,45.30
2022-12-08T20:21:14.467Z,45.80
2022-12-08T20:23:43.304Z,49.70
2022-12-08T20:26:13.541Z,46.40
2022-12-08T20:28:42.237Z,49.80
2022-12-08T20:31:26.054Z,49.80
2022-12-08T20:33:54.623Z,41.60
2022-12-08T20:36:23.838Z,41.20
2022-12-08T20:38:54.320Z,41.50
2022-12-08T20:41:23.799Z,35.70
2022-12-08T20:43:52.879Z,39.00
2022-12-08T20:46:21.874Z,36.80
2022-12-08T20:48:50.313Z,39.30
2022-12-08T20:51:19.922Z,44.80
2022-12-08T20:53:51.513Z,42.10
2022-12-08T20:56:22.359Z,38.30
2022-12-08T20:58:52.262Z,35.00
2022-12-08T21:01:23.453Z,37.30
2022-12-08T21:03:52.263Z,37.50
2022-12-08T21:06:23.618Z,43.50
2022-12-08T21:08:52.576Z,43.10
2022-12-08T21:11:21.129Z,40.20
2022-12-08T21:13:49.689Z,45.70
2022-12-08T21:16:18.062Z,48.10
2022-12-08T21:18:46.634Z,48.60
2022-12-08T21:21:15.760Z,45.50
2022-12-08T21:23:45.032Z,44.70
2022-12-08T21:26:16.242Z,45.60
2022-12-08T21:28:45.029Z,47.80
2022-12-08T21:31:16.697Z,45.50
2022-12-08T21:33:45.465Z,42.80
2022-12-08T21:36:16.790Z,44.10
2022-12-08T21:38:47.009Z,41.60
2022-12-08T21:41:38.349Z,40.70
2022-12-08T21:44:09.655Z,38.40
2022-12-08T21:46:38.229Z,41.10
2022-12-08T21:49:07.094Z,43.50
2022-12-08T21:51:37.944Z,42.50
2022-12-08T21:54:07.017Z,39.80
2022-12-08T21:56:35.832Z,40.50
2022-12-08T21:59:04.222Z,43.40
2022-12-08T22:01:32.508Z,40.50
2022-12-08T22:04:01.530Z,40.00
2022-12-08T22:06:30.978Z,43.90
2022-12-08T22:08:59.751Z,43.00
2022-12-08T22:11:28.622Z,46.00
2022-12-08T22:13:57.063Z,41.60
2022-12-08T22:16:25.533Z,41.50
2022-12-08T22:18:54.127Z,40.60
2022-12-08T22:21:22.412Z,42.20
2022-12-08T22:23:50.846Z,43.60
2022-12-08T22:26:19.301Z,45.80
2022-12-08T22:28:47.595Z,44.80
2022-12-08T22:31:21.172Z,46.50
2022-12-08T22:33:50.748Z,43.30
2022-12-08T22:36:22.419Z,44.70
2022-12-08T22:38:52.380Z,44.30
2022-12-08T22:41:22.159Z,41.90
2022-12-08T22:43:50.851Z,44.90
2022-12-08T22:46:21.587Z,46.70
2022-12-08T22:48:51.415Z,43.30
2022-12-08T22:51:20.309Z,42.60
2022-12-08T22:53:48.937Z,46.00
2022-12-08T22:56:18.638Z,47.20
2022-12-08T22:58:46.987Z,48.30
2022-12-08T23:01:26.251Z,47.60
2022-12-08T23:03:55.077Z,50.70
2022-12-08T23:06:24.249Z,48.40
2022-12-08T23:08:54.055Z,47.60
2022-12-08T23:11:25.882Z,47.60
2022-12-08T23:13:56.318Z,45.20
2022-12-08T23:16:24.919Z,46.50
2022-12-08T23:18:53.333Z,48.30
2022-12-08T23:21:22.191Z,50.70
2022-12-08T23:23:50.494Z,43.90
2022-12-08T23:26:27.513Z,45.50
2022-12-08T23:29:42.684Z,53.90
2022-12-08T23:32:29.340Z,48.70
2022-12-08T23:34:57.920Z,48.20
2022-12-08T23:37:26.310Z,49.00
2022-12-08T23:39:54.868Z,54.20
2022-12-08T23:42:23.400Z,50.40
2022-12-08T23:44:51.834Z,48.00
2022-12-08T23:47:21.038Z,48.80
2022-12-08T23:49:49.420Z,49.60
2022-12-08T23:52:17.658Z,44.60
2022-12-08T23:54:46.109Z,48.20
2022-12-08T23:57:14.381Z,43.70
2022-12-08T23:59:42.657Z,48.50
